Saint Joseph, MO (64501)

10:18 PM CST on February 09, 2016 (GMT -0600)
KMOSTJOS3 | | Change Station
CLOSE
Current Station
Personal Weather Station
Location: St Joseph, MO
Elevation: 965 ft
Nearby Weather Stations

Elev 965 ft 39.77 °N, 94.82 °W | Updated 52 seconds ago

Clear
Clear
22.8 °F
Feels Like 23 °F
N
0.0
Wind Variable Wind from NNE
Gusts 0.0 mph

Today
High -- | Low -- °F
--% Chance of Precip.
Yesterday
High -- | Low -- °F
Precip. -- in
Pressure 30.32 in
Visibility 10.0 miles
Clouds Mostly Cloudy 6000 ft
Windchill 23 °F
Dew Point 4 °F
Humidity 43%
Rainfall 0.00 in
Snow Depth Not available.
7:19 AM 5:48 PM
Waxing Crescent, 3% visible
METAR KSTJ 100353Z AUTO 31007KT 10SM BKN060 M07/M12 A3028 RMK AO2 SLP268 T10671122
Pressure 30.32 in
Visibility 10.0 miles
Clouds Mostly Cloudy 6000 ft
Windchill 23 °F
Dew Point 4 °F
Humidity 43%
Rainfall 0.00 in
Snow Depth Not available.
7:19 AM 5:48 PM
Waxing Crescent, 3% visible
METAR KSTJ 100353Z AUTO 31007KT 10SM BKN060 M07/M12 A3028 RMK AO2 SLP268 T10671122

10-Day Weather Forecast

Almanac

Astronomy

Feb. 09, 2016 Rise Set
Actual Time
Civil Twilight
Nautical Twilight
Astronomical Twilight
Moon
Length of Visible Light
Length of Day
Tomorrow will be .
, % of the Moon is Illuminated

Today's Extremes

State Highs State Lows

Community

WunderPhotos

Upload Photos

1,891,796 photos uploaded!

WunderBlog® & News

Nearby

Air Quality

  Air Quality AQ Index Pollutant
Not available.

Snow Depth

Station Depth Elevation

Earthquake Activity

City Distance Mag. Time & Date
Minimum magnitude displayed is 2.5.

Coastal Water Temperatures

Place Temperature

Stations

Nearby Weather Stations

Station Location Temp. Windchill Dew Point Humidity Wind Precip. Elev Updated Type
                   

Watches & Warnings

There are currently no watches in effect.